Time;durP1;ratioP1;P1;durP2;ratioP2;P2;SDS_P1;SDS_P2;PMS_P1;PMS_P2;Temp;Humidity;BMP_temperature;BMP_pressure;BME280_temperature;BME280_humidity;BME280_pressure;Samples;Min_cycle;Max_cycle;Signal;HPM_P1;HPM_P2
2020/12/11 00:00:13;;;;;;;19.77;13.48;;;5.00;99.90;;;;;;5070456;28;20289;-76
2020/12/11 00:02:39;;;;;;;20.95;13.45;;;5.10;99.90;;;;;;5070509;28;20733;-75
2020/12/11 00:05:06;;;;;;;19.50;12.57;;;5.10;99.90;;;;;;5071468;28;20225;-75
2020/12/11 00:07:35;;;;;;;21.17;13.20;;;5.10;99.90;;;;;;5070931;28;20715;-76
2020/12/11 00:10:03;;;;;;;20.45;13.60;;;5.00;99.90;;;;;;5069052;28;20926;-77
2020/12/11 00:12:30;;;;;;;20.50;14.43;;;5.00;99.90;;;;;;5070978;28;20259;-77
2020/12/11 00:14:56;;;;;;;21.55;13.95;;;4.90;99.90;;;;;;5070298;28;20205;-76
2020/12/11 00:17:23;;;;;;;20.65;14.50;;;5.10;99.90;;;;;;5070125;28;20593;-77
2020/12/11 00:19:50;;;;;;;19.77;15.27;;;5.00;99.90;;;;;;5070208;28;20683;-75
2020/12/11 00:22:16;;;;;;;20.00;12.20;;;4.90;99.90;;;;;;5070569;28;20209;-77
2020/12/11 00:24:44;;;;;;;16.13;12.35;;;4.90;99.90;;;;;;5070555;28;20228;-76
2020/12/11 00:27:10;;;;;;;16.35;12.43;;;4.90;99.90;;;;;;5070245;28;20320;-76
2020/12/11 00:29:37;;;;;;;19.92;12.85;;;4.70;99.90;;;;;;5070271;28;20212;-76
2020/12/11 00:32:04;;;;;;;18.17;13.05;;;5.00;99.90;;;;;;5070035;28;20206;-76
2020/12/11 00:34:31;;;;;;;18.05;12.77;;;4.80;99.90;;;;;;5070536;28;20232;-76
2020/12/11 00:36:58;;;;;;;21.50;13.15;;;4.80;99.90;;;;;;5070713;28;20237;-75
2020/12/11 00:39:24;;;;;;;23.70;13.80;;;4.90;99.90;;;;;;5070216;28;20242;-76
2020/12/11 00:41:52;;;;;;;21.35;13.68;;;5.00;99.90;;;;;;5070194;28;20205;-76
2020/12/11 00:44:18;;;;;;;19.33;12.15;;;4.90;99.90;;;;;;5070048;28;20244;-76
2020/12/11 00:46:45;;;;;;;15.93;9.63;;;5.00;99.90;;;;;;5070255;28;20215;-76
2020/12/11 00:49:11;;;;;;;17.17;12.75;;;5.20;99.90;;;;;;5070525;28;20271;-75
2020/12/11 00:51:38;;;;;;;17.52;11.15;;;5.30;99.90;;;;;;5070126;28;20205;-76
2020/12/11 00:54:04;;;;;;;15.93;12.65;;;5.00;99.90;;;;;;5070456;28;20206;-76
2020/12/11 00:56:31;;;;;;;13.95;11.13;;;4.80;99.90;;;;;;5070159;28;20208;-76
2020/12/11 00:58:58;;;;;;;15.50;11.15;;;4.80;99.90;;;;;;5070412;28;20259;-76
2020/12/11 01:01:25;;;;;;;16.23;10.68;;;4.90;99.90;;;;;;5070389;28;20259;-76
2020/12/11 01:03:51;;;;;;;13.75;10.45;;;4.90;99.90;;;;;;5067186;28;20630;-76
2020/12/11 01:06:18;;;;;;;17.98;11.45;;;4.70;99.90;;;;;;5066646;28;20203;-76
2020/12/11 01:08:44;;;;;;;15.07;11.48;;;4.70;99.90;;;;;;5049815;28;20708;-76
2020/12/11 01:11:11;;;;;;;16.67;11.18;;;4.60;99.90;;;;;;5051931;28;20203;-76
2020/12/11 01:13:38;;;;;;;14.27;10.80;;;4.80;99.90;;;;;;5058127;28;20210;-76
2020/12/11 01:16:06;;;;;;;15.15;10.80;;;4.60;99.90;;;;;;5069743;28;20198;-76
2020/12/11 01:18:32;;;;;;;17.63;11.27;;;4.70;99.90;;;;;;5069354;28;20230;-76
2020/12/11 01:20:59;;;;;;;15.52;11.18;;;4.60;99.90;;;;;;5069811;28;20202;-76
2020/12/11 01:23:25;;;;;;;16.38;11.68;;;4.30;99.90;;;;;;5070289;28;20213;-76
2020/12/11 01:25:52;;;;;;;15.63;11.10;;;4.60;99.90;;;;;;5069764;28;20217;-76
2020/12/11 01:28:19;;;;;;;16.38;11.63;;;4.60;99.90;;;;;;5069344;28;20229;-76
2020/12/11 01:30:45;;;;;;;13.68;10.50;;;4.50;99.90;;;;;;5072320;28;20206;-77
2020/12/11 01:33:13;;;;;;;13.98;10.30;;;4.50;99.90;;;;;;5072928;28;20198;-77
2020/12/11 01:35:39;;;;;;;13.95;10.60;;;4.40;99.90;;;;;;5073723;28;20202;-76
2020/12/11 01:38:06;;;;;;;14.95;10.40;;;4.40;99.90;;;;;;5064609;28;20567;-76
2020/12/11 01:40:35;;;;;;;14.30;10.30;;;4.40;99.90;;;;;;5087021;28;20264;-76
2020/12/11 01:43:01;;;;;;;16.63;10.27;;;4.20;99.90;;;;;;5080425;28;20213;-76
2020/12/11 01:45:28;;;;;;;14.52;10.88;;;4.30;99.90;;;;;;5077606;28;20229;-76
2020/12/11 01:47:54;;;;;;;16.48;10.88;;;4.30;99.90;;;;;;5078893;28;20229;-76
2020/12/11 01:50:22;;;;;;;16.58;10.75;;;4.40;99.90;;;;;;5080811;28;20202;-75
2020/12/11 01:52:50;;;;;;;16.38;10.82;;;4.40;99.90;;;;;;5077774;28;20198;-77
2020/12/11 01:55:16;;;;;;;15.60;10.27;;;4.20;99.90;;;;;;5073104;28;20201;-76
2020/12/11 01:57:53;;;;;;;15.50;10.65;;;4.40;99.90;;;;;;5072397;28;20653;-77
2020/12/11 02:00:20;;;;;;;17.00;11.45;;;4.40;99.90;;;;;;5073299;28;20213;-76
2020/12/11 02:02:48;;;;;;;16.60;11.55;;;4.30;99.90;;;;;;5072689;28;20206;-77
2020/12/11 02:05:15;;;;;;;16.48;11.32;;;4.30;99.90;;;;;;5072245;28;20226;-77
2020/12/11 02:07:42;;;;;;;13.57;10.15;;;4.40;99.90;;;;;;5072427;28;20473;-77
2020/12/11 02:10:10;;;;;;;18.42;11.27;;;4.40;99.90;;;;;;5070284;28;20295;-77
2020/12/11 02:12:37;;;;;;;16.90;11.15;;;4.40;99.90;;;;;;5053988;28;20320;-77
2020/12/11 02:15:05;;;;;;;19.13;11.38;;;4.20;99.90;;;;;;5071907;28;20672;-77
2020/12/11 02:17:32;;;;;;;15.45;11.15;;;4.40;99.90;;;;;;5072379;28;20234;-77
2020/12/11 02:19:59;;;;;;;16.85;12.18;;;4.30;99.90;;;;;;5071756;28;20198;-77
2020/12/11 02:22:26;;;;;;;16.45;11.18;;;4.20;99.90;;;;;;5071820;28;20206;-77
2020/12/11 02:24:53;;;;;;;15.10;11.23;;;4.20;99.90;;;;;;5071959;28;20225;-77
2020/12/11 02:27:19;;;;;;;18.20;12.18;;;4.20;99.90;;;;;;5072230;28;20282;-76
2020/12/11 02:29:46;;;;;;;16.40;11.52;;;4.40;99.90;;;;;;5072196;28;20214;-77
2020/12/11 02:32:14;;;;;;;19.02;12.10;;;4.00;99.90;;;;;;5072821;28;20201;-77
2020/12/11 02:34:41;;;;;;;20.60;12.10;;;4.10;99.90;;;;;;5073624;28;20201;-77
2020/12/11 02:37:09;;;;;;;17.40;11.80;;;4.00;99.90;;;;;;5072095;28;20351;-77
2020/12/11 02:39:37;;;;;;;16.63;11.48;;;4.00;99.90;;;;;;5072328;28;20741;-77
2020/12/11 02:42:03;;;;;;;18.30;12.77;;;4.00;99.90;;;;;;5071461;28;20237;-76
2020/12/11 02:44:30;;;;;;;18.75;12.57;;;3.80;99.90;;;;;;5073055;28;20719;-77
2020/12/11 02:46:56;;;;;;;15.48;11.30;;;4.00;99.90;;;;;;5072480;28;20275;-77
2020/12/11 02:49:23;;;;;;;15.88;11.48;;;3.90;99.90;;;;;;5073721;28;20210;-77
2020/12/11 02:51:50;;;;;;;18.35;10.60;;;4.00;99.90;;;;;;5074987;28;20205;-77
2020/12/11 02:54:16;;;;;;;15.13;11.05;;;3.90;99.90;;;;;;5074878;28;20324;-77
2020/12/11 02:56:44;;;;;;;18.75;12.48;;;3.90;99.90;;;;;;5074250;28;20296;-77
2020/12/11 02:59:10;;;;;;;17.05;12.07;;;3.70;99.90;;;;;;5076961;28;20205;-77
2020/12/11 03:01:37;;;;;;;16.27;10.73;;;3.90;99.90;;;;;;5075222;28;20206;-77
2020/12/11 03:04:03;;;;;;;19.35;12.13;;;3.90;99.90;;;;;;5073397;28;20301;-76
2020/12/11 03:06:31;;;;;;;20.90;12.30;;;3.60;99.90;;;;;;5072069;28;20202;-76
2020/12/11 03:08:58;;;;;;;17.05;11.52;;;3.50;99.90;;;;;;5071601;28;20233;-76
2020/12/11 03:11:25;;;;;;;18.08;11.13;;;3.70;99.90;;;;;;5068710;28;20210;-76
2020/12/11 03:13:53;;;;;;;16.98;11.57;;;4.00;99.90;;;;;;5071816;28;20255;-76
2020/12/11 03:16:20;;;;;;;17.25;12.02;;;4.10;99.90;;;;;;5070941;28;20673;-76
2020/12/11 03:18:47;;;;;;;17.58;11.70;;;4.10;99.90;;;;;;5071333;28;20225;-76
2020/12/11 03:21:14;;;;;;;17.38;11.82;;;3.80;99.90;;;;;;5070574;28;20228;-76
2020/12/11 03:23:41;;;;;;;18.70;12.13;;;4.00;99.90;;;;;;5071567;28;20202;-76
2020/12/11 03:26:08;;;;;;;23.52;12.68;;;3.90;99.90;;;;;;5070557;28;20330;-76
2020/12/11 03:28:35;;;;;;;18.63;12.20;;;4.10;99.90;;;;;;5071496;28;20226;-76
2020/12/11 03:31:03;;;;;;;16.90;11.65;;;3.90;99.90;;;;;;5070844;28;20675;-76
2020/12/11 03:33:29;;;;;;;17.80;11.73;;;4.00;99.90;;;;;;5071100;28;20565;-76
2020/12/11 03:35:56;;;;;;;18.00;12.40;;;4.10;99.90;;;;;;5070983;28;20240;-76
2020/12/11 03:38:23;;;;;;;18.33;11.55;;;4.10;99.90;;;;;;5070742;28;20233;-76
2020/12/11 03:40:50;;;;;;;18.17;13.05;;;3.90;99.90;;;;;;5070762;28;20268;-76
2020/12/11 03:43:17;;;;;;;18.52;12.60;;;3.90;99.90;;;;;;5070884;28;20284;-76
2020/12/11 03:45:43;;;;;;;18.70;12.30;;;3.70;99.90;;;;;;5054633;28;21054;-76
2020/12/11 03:48:11;;;;;;;19.25;12.68;;;3.70;99.90;;;;;;5050647;28;20321;-76
2020/12/11 03:50:37;;;;;;;21.35;13.35;;;3.80;99.90;;;;;;5051077;28;20209;-76
2020/12/11 03:53:04;;;;;;;20.38;13.40;;;3.60;99.90;;;;;;5069918;28;20584;-76
2020/12/11 03:55:32;;;;;;;19.88;12.85;;;3.40;99.90;;;;;;5070116;28;20202;-76
2020/12/11 03:57:58;;;;;;;21.70;14.63;;;3.40;99.90;;;;;;5070343;28;20218;-76
2020/12/11 04:00:25;;;;;;;20.40;14.07;;;3.50;99.90;;;;;;5071094;28;20251;-76
2020/12/11 04:02:51;;;;;;;24.52;13.93;;;3.50;99.90;;;;;;5071350;28;20208;-76
2020/12/11 04:05:19;;;;;;;21.65;14.43;;;3.40;99.90;;;;;;5069483;28;20232;-76
2020/12/11 04:07:45;;;;;;;21.33;13.68;;;3.30;99.90;;;;;;5070990;28;20603;-75
2020/12/11 04:10:12;;;;;;;22.30;14.75;;;3.30;99.90;;;;;;5070075;28;20197;-75
2020/12/11 04:12:38;;;;;;;25.15;14.52;;;3.40;99.90;;;;;;5070580;28;20202;-75
2020/12/11 04:15:05;;;;;;;21.67;14.60;;;3.50;99.90;;;;;;5070468;28;20665;-75
2020/12/11 04:17:31;;;;;;;22.55;15.75;;;3.50;99.90;;;;;;5070543;28;20739;-75
2020/12/11 04:19:58;;;;;;;26.23;14.30;;;3.50;99.90;;;;;;5070551;28;20622;-76
2020/12/11 04:22:26;;;;;;;22.02;14.52;;;3.50;99.90;;;;;;5070935;28;20212;-75
2020/12/11 04:24:52;;;;;;;20.38;13.48;;;3.30;99.90;;;;;;5070041;28;20209;-75
2020/12/11 04:27:19;;;;;;;21.17;15.13;;;3.30;99.90;;;;;;5070590;28;20291;-75
2020/12/11 04:29:45;;;;;;;23.88;14.73;;;3.30;99.90;;;;;;5069414;28;20717;-75
2020/12/11 04:32:13;;;;;;;26.40;15.43;;;3.40;99.90;;;;;;5070508;28;20210;-77
2020/12/11 04:34:40;;;;;;;25.33;15.48;;;3.30;99.90;;;;;;5070632;28;20236;-77
2020/12/11 04:37:07;;;;;;;24.23;14.35;;;3.40;99.90;;;;;;5070708;28;20305;-76
2020/12/11 04:39:34;;;;;;;26.90;14.82;;;3.30;99.90;;;;;;5069775;28;20194;-75
2020/12/11 04:42:02;;;;;;;24.00;15.13;;;3.60;99.90;;;;;;5070303;28;20290;-76
2020/12/11 04:44:29;;;;;;;24.58;14.40;;;3.40;99.90;;;;;;5069609;28;20224;-75
2020/12/11 04:46:57;;;;;;;22.08;14.93;;;3.60;99.90;;;;;;5069240;28;20320;-75
2020/12/11 04:49:24;;;;;;;25.60;15.20;;;3.40;99.90;;;;;;5069877;28;20206;-75
2020/12/11 04:51:52;;;;;;;24.20;12.95;;;3.40;99.90;;;;;;5095263;22;20215;-76
2020/12/11 04:54:20;;;;;;;23.10;13.95;;;3.50;99.90;;;;;;5089970;28;20198;-76
2020/12/11 04:56:50;;;;;;;26.42;15.68;;;3.50;99.90;;;;;;5070493;28;20202;-76
2020/12/11 04:59:17;;;;;;;23.77;14.85;;;3.30;99.90;;;;;;5073327;28;20685;-76
2020/12/11 05:01:44;;;;;;;26.25;15.43;;;3.20;99.90;;;;;;5090501;28;20580;-77
2020/12/11 05:04:10;;;;;;;26.45;14.60;;;3.20;99.90;;;;;;5090351;28;20220;-76
2020/12/11 05:06:37;;;;;;;23.13;14.55;;;3.40;99.90;;;;;;5094284;28;20677;-76
2020/12/11 05:09:12;;;;;;;28.38;16.55;;;3.10;99.90;;;;;;5094629;28;20620;-76
2020/12/11 05:11:39;;;;;;;30.38;14.90;;;2.90;99.90;;;;;;5094065;28;20292;-76
2020/12/11 05:14:19;;;;;;;26.60;15.90;;;3.10;99.90;;;;;;5094148;28;20721;-76
2020/12/11 05:16:59;;;;;;;27.70;16.48;;;2.80;99.90;;;;;;5093527;28;20655;-76
2020/12/11 05:19:26;;;;;;;26.50;15.68;;;2.80;99.90;;;;;;5093394;28;20200;-77
2020/12/11 05:21:53;;;;;;;28.27;16.80;;;2.80;99.90;;;;;;5093498;28;20254;-76
2020/12/11 05:24:19;;;;;;;25.33;14.65;;;3.00;99.90;;;;;;5094025;28;20316;-76
2020/12/11 05:26:46;;;;;;;26.02;15.13;;;3.00;99.90;;;;;;5094059;28;20353;-76
2020/12/11 05:29:13;;;;;;;29.30;16.83;;;2.70;99.90;;;;;;5093826;28;20227;-76
2020/12/11 05:31:46;;;;;;;26.33;17.10;;;2.80;99.90;;;;;;5093512;28;20197;-76
2020/12/11 05:34:14;;;;;;;25.67;14.07;;;2.60;99.90;;;;;;5093627;28;20201;-76
2020/12/11 05:36:46;;;;;;;26.20;15.70;;;3.00;99.90;;;;;;5093421;28;20201;-77
2020/12/11 05:39:16;;;;;;;27.48;15.50;;;3.10;99.90;;;;;;5093783;28;20231;-75
2020/12/11 05:41:43;;;;;;;26.20;14.65;;;3.10;99.90;;;;;;5093734;28;20205;-76
2020/12/11 05:44:27;;;;;;;25.25;14.00;;;2.90;99.90;;;;;;5093155;28;20209;-76
2020/12/11 05:46:54;;;;;;;27.00;15.55;;;2.80;99.90;;;;;;5095126;28;20201;-77
2020/12/11 05:49:30;;;;;;;25.58;15.57;;;2.70;99.90;;;;;;5093718;28;20217;-76
2020/12/11 05:52:10;;;;;;;32.28;16.40;;;2.70;99.90;;;;;;5093607;28;20232;-75
2020/12/11 05:54:47;;;;;;;26.33;14.82;;;2.60;99.90;;;;;;5093671;28;20346;-77
2020/12/11 05:57:15;;;;;;;27.08;14.88;;;2.70;99.90;;;;;;5088251;28;20201;-77
2020/12/11 05:59:44;;;;;;;27.45;14.48;;;2.60;99.90;;;;;;5093966;28;20201;-77
2020/12/11 06:02:11;;;;;;;27.83;16.52;;;2.70;99.90;;;;;;5094322;28;20229;-77
2020/12/11 06:04:38;;;;;;;27.67;16.38;;;2.70;99.90;;;;;;5094035;28;20251;-76
2020/12/11 06:07:11;;;;;;;23.70;13.95;;;2.60;99.90;;;;;;5093841;28;20205;-77
2020/12/11 06:09:39;;;;;;;24.80;15.13;;;2.90;99.90;;;;;;5093401;28;20273;-77
2020/12/11 06:12:07;;;;;;;25.83;14.65;;;2.80;99.90;;;;;;5093987;28;20722;-77
2020/12/11 06:15:07;;;;;;;25.80;15.82;;;2.90;99.90;;;;;;5091412;28;20193;-74
2020/12/11 06:17:37;;;;;;;20.73;13.07;;;2.80;99.90;;;;;;5084720;28;20583;-76
2020/12/11 06:20:07;;;;;;;24.23;14.20;;;3.00;99.90;;;;;;5075741;28;21261;-77
2020/12/11 06:22:34;;;;;;;24.92;15.15;;;2.80;99.90;;;;;;5088067;28;20304;-77
2020/12/11 06:25:28;;;;;;;25.67;14.50;;;2.90;99.90;;;;;;5092486;28;20229;-76
2020/12/11 06:27:55;;;;;;;26.33;15.52;;;2.70;99.90;;;;;;5092425;28;20208;-77
2020/12/11 06:30:32;;;;;;;27.20;15.75;;;2.70;99.90;;;;;;5092329;28;20281;-76
2020/12/11 06:33:00;;;;;;;26.02;15.85;;;2.70;99.90;;;;;;5092341;28;20232;-77
2020/12/11 06:35:27;;;;;;;24.95;14.95;;;2.50;99.90;;;;;;5093017;28;20205;-76
2020/12/11 06:37:54;;;;;;;23.63;13.95;;;2.80;99.90;;;;;;5091877;28;20716;-77
2020/12/11 06:40:48;;;;;;;20.23;11.20;;;2.90;99.90;;;;;;5090087;28;20391;-77
2020/12/11 06:43:40;;;;;;;23.10;13.45;;;3.00;99.90;;;;;;5092980;28;20268;-76
2020/12/11 06:46:15;;;;;;;21.35;13.25;;;3.00;99.90;;;;;;5082151;28;20225;-75
2020/12/11 06:49:10;;;;;;;20.60;12.32;;;2.70;99.90;;;;;;5092696;28;20287;-77
2020/12/11 06:52:09;;;;;;;28.13;13.43;;;2.80;99.90;;;;;;5092091;28;20220;-77
2020/12/11 06:54:53;;;;;;;20.95;13.02;;;2.90;99.90;;;;;;5094457;28;20213;-75
2020/12/11 06:57:39;;;;;;;20.45;11.48;;;2.80;99.90;;;;;;5092518;28;20266;-76
2020/12/11 07:00:33;;;;;;;23.02;12.60;;;3.10;99.90;;;;;;5090398;28;20194;-76
2020/12/11 07:03:31;;;;;;;22.75;13.32;;;2.90;99.90;;;;;;5092016;28;20235;-74
2020/12/11 07:06:03;;;;;;;21.05;13.30;;;3.00;99.90;;;;;;5056406;28;20605;-77
2020/12/11 07:08:30;;;;;;;24.27;13.60;;;3.00;99.90;;;;;;5090522;28;20251;-76
2020/12/11 07:11:07;;;;;;;19.58;12.02;;;3.10;99.90;;;;;;5090236;28;20197;-76
2020/12/11 07:13:36;;;;;;;21.17;12.90;;;3.00;99.90;;;;;;5089125;28;20217;-76
2020/12/11 07:16:03;;;;;;;23.50;12.57;;;2.90;99.90;;;;;;5088839;28;20193;-83
2020/12/11 07:18:30;;;;;;;23.88;13.73;;;3.00;99.90;;;;;;5090901;28;20246;-76
2020/12/11 07:20:58;;;;;;;22.02;13.13;;;3.20;99.90;;;;;;5090923;28;20201;-74
2020/12/11 07:23:26;;;;;;;19.92;12.48;;;3.10;99.90;;;;;;5078795;28;20226;-76
2020/12/11 07:25:54;;;;;;;32.35;12.20;;;3.00;99.90;;;;;;5089414;28;20229;-76
2020/12/11 07:28:22;;;;;;;21.70;12.07;;;3.10;99.90;;;;;;5089992;28;20209;-75
2020/12/11 07:30:49;;;;;;;24.02;12.90;;;2.80;99.90;;;;;;5090354;28;20205;-74
2020/12/11 07:33:16;;;;;;;21.27;12.57;;;3.00;99.90;;;;;;5090145;28;20224;-74
2020/12/11 07:35:48;;;;;;;18.65;11.00;;;3.10;99.90;;;;;;5086575;28;20822;-76
2020/12/11 07:38:17;;;;;;;24.60;11.55;;;3.10;99.90;;;;;;5091767;28;20571;-74
2020/12/11 07:40:52;;;;;;;18.00;11.43;;;3.10;99.90;;;;;;5090440;28;20283;-74
2020/12/11 07:43:20;;;;;;;22.33;12.82;;;3.00;99.90;;;;;;5089936;28;20284;-76
2020/12/11 07:45:47;;;;;;;18.95;11.25;;;3.20;99.90;;;;;;5089144;28;20281;-76
2020/12/11 07:48:14;;;;;;;22.38;13.32;;;3.20;99.90;;;;;;5093065;28;20197;-75
2020/12/11 07:50:41;;;;;;;23.60;13.30;;;3.00;99.90;;;;;;5091772;28;20791;-75
2020/12/11 07:53:10;;;;;;;20.33;12.23;;;3.00;99.90;;;;;;5087462;28;20309;-75
2020/12/11 07:55:38;;;;;;;22.52;12.35;;;3.10;99.90;;;;;;5089506;28;20200;-75
2020/12/11 07:58:04;;;;;;;25.30;14.18;;;3.10;99.90;;;;;;5089856;28;20225;-75
2020/12/11 08:00:36;;;;;;;22.23;12.05;;;3.10;99.90;;;;;;5090101;28;20198;-75
2020/12/11 08:03:06;;;;;;;20.48;13.30;;;3.20;99.90;;;;;;5090363;28;20217;-76
2020/12/11 08:05:34;;;;;;;24.25;12.20;;;3.00;99.90;;;;;;5090447;28;20232;-75
2020/12/11 08:08:01;;;;;;;21.40;12.43;;;3.00;99.90;;;;;;5090292;28;20208;-77
2020/12/11 08:10:37;;;;;;;18.38;12.10;;;3.00;99.90;;;;;;5090217;28;20210;-75
2020/12/11 08:13:15;;;;;;;19.67;12.23;;;3.30;99.90;;;;;;5090356;28;20228;-76
2020/12/11 08:15:43;;;;;;;22.45;13.23;;;3.20;99.90;;;;;;5090661;28;20201;-76
2020/12/11 08:18:21;;;;;;;20.33;12.02;;;3.20;99.90;;;;;;5090371;28;20261;-76
2020/12/11 08:20:50;;;;;;;19.92;11.90;;;3.50;99.90;;;;;;5089785;28;20201;-75
2020/12/11 08:23:22;;;;;;;20.02;12.85;;;3.30;99.90;;;;;;5090696;28;20236;-76
2020/12/11 08:26:08;;;;;;;24.77;13.70;;;3.40;99.90;;;;;;5090592;28;20631;-75
2020/12/11 08:28:35;;;;;;;21.27;12.85;;;3.40;99.90;;;;;;5070533;28;20560;-75
2020/12/11 08:31:19;;;;;;;22.88;13.52;;;3.30;99.90;;;;;;5086146;28;20568;-76
2020/12/11 08:33:46;;;;;;;19.65;11.50;;;3.30;99.90;;;;;;5092427;28;20324;-76
2020/12/11 08:36:27;;;;;;;20.95;13.43;;;3.40;99.90;;;;;;5090815;28;20220;-76
2020/12/11 08:39:11;;;;;;;22.63;12.60;;;3.50;99.90;;;;;;5090257;28;20803;-74
2020/12/11 08:41:42;;;;;;;22.48;13.32;;;3.30;99.90;;;;;;5096193;28;20248;-77
2020/12/11 08:44:18;;;;;;;22.58;14.63;;;3.20;99.90;;;;;;5096400;28;20205;-76
2020/12/11 08:46:56;;;;;;;26.98;13.75;;;3.60;99.90;;;;;;5095812;28;21008;-76
2020/12/11 08:49:41;;;;;;;21.15;12.63;;;3.40;99.90;;;;;;5094713;28;20203;-76
2020/12/11 08:52:07;;;;;;;24.75;13.20;;;3.60;99.90;;;;;;5094895;28;20229;-76
2020/12/11 08:54:34;;;;;;;21.33;13.30;;;3.60;99.90;;;;;;5095149;28;20201;-77
2020/12/11 08:57:02;;;;;;;23.25;12.73;;;3.60;99.90;;;;;;5094473;28;20202;-76
2020/12/11 08:59:28;;;;;;;21.08;12.52;;;3.50;99.90;;;;;;5094873;28;20205;-77
2020/12/11 09:01:55;;;;;;;23.95;13.82;;;3.70;99.90;;;;;;5093710;28;20263;-75
2020/12/11 09:04:21;;;;;;;23.25;13.50;;;3.80;99.90;;;;;;5094021;28;20690;-76
2020/12/11 09:06:48;;;;;;;19.63;12.52;;;3.90;99.90;;;;;;5094653;28;20250;-76
2020/12/11 09:09:14;;;;;;;21.50;12.05;;;4.00;99.90;;;;;;5094299;28;20227;-77
2020/12/11 09:11:41;;;;;;;23.77;12.55;;;3.90;99.90;;;;;;5086042;28;20208;-76
2020/12/11 09:14:08;;;;;;;20.65;10.60;;;3.90;99.90;;;;;;5094416;28;20625;-77
2020/12/11 09:16:35;;;;;;;23.30;13.02;;;4.10;99.90;;;;;;5094105;28;20197;-77
2020/12/11 09:19:01;;;;;;;20.45;12.40;;;4.40;99.90;;;;;;5093889;28;20296;-76
2020/12/11 09:21:28;;;;;;;19.55;12.40;;;4.20;99.90;;;;;;5093646;28;20612;-76
2020/12/11 09:23:55;;;;;;;20.45;11.75;;;4.60;99.90;;;;;;5094041;28;20584;-77
2020/12/11 09:26:23;;;;;;;20.35;11.82;;;4.40;99.90;;;;;;5093608;28;20278;-77
2020/12/11 09:28:55;;;;;;;26.27;13.10;;;4.50;99.90;;;;;;5093582;28;20216;-76
2020/12/11 09:31:23;;;;;;;20.73;12.60;;;4.60;99.90;;;;;;5094037;28;20210;-77
2020/12/11 09:33:49;;;;;;;19.95;12.00;;;4.40;99.90;;;;;;5073709;28;20226;-77
2020/12/11 09:36:16;;;;;;;18.83;10.80;;;4.50;99.90;;;;;;5092983;28;20240;-76
2020/12/11 09:38:43;;;;;;;20.00;12.13;;;4.50;99.90;;;;;;5093695;28;20694;-75
2020/12/11 09:41:13;;;;;;;22.75;12.80;;;4.30;99.90;;;;;;5094313;28;20205;-76
2020/12/11 09:46:35;;;;;;;19.20;11.63;;;4.40;99.90;;;;;;5083812;28;20760;-77
2020/12/11 09:49:04;;;;;;;20.55;11.43;;;4.30;99.90;;;;;;5092889;28;20234;-76
2020/12/11 09:54:26;;;;;;;20.70;11.63;;;4.20;99.90;;;;;;5071672;28;20197;-77
2020/12/11 09:56:55;;;;;;;26.38;12.38;;;4.50;99.90;;;;;;5093865;28;20254;-77
2020/12/11 09:59:26;;;;;;;26.60;12.05;;;4.40;99.90;;;;;;5093670;28;20216;-76
2020/12/11 10:04:39;;;;;;;21.65;11.77;;;4.40;99.90;;;;;;5094563;28;20212;-75
2020/12/11 10:07:06;;;;;;;19.60;12.30;;;4.60;99.90;;;;;;5095165;28;20206;-75
2020/12/11 10:09:32;;;;;;;19.75;11.25;;;4.90;99.90;;;;;;5093630;28;20212;-76
2020/12/11 10:12:02;;;;;;;16.80;10.70;;;5.00;99.90;;;;;;5081761;28;20217;-75
2020/12/11 10:14:31;;;;;;;19.48;10.98;;;5.10;99.90;;;;;;5082654;28;20765;-77
2020/12/11 10:16:59;;;;;;;16.63;10.55;;;4.80;99.90;;;;;;5092878;28;20197;-77
2020/12/11 10:19:25;;;;;;;20.80;10.90;;;5.00;99.90;;;;;;5093490;28;20574;-77
2020/12/11 10:21:52;;;;;;;22.02;12.60;;;5.30;99.90;;;;;;5092893;28;20221;-76
2020/12/11 10:24:20;;;;;;;20.33;11.27;;;5.10;99.90;;;;;;5093451;28;20273;-77
2020/12/11 10:26:46;;;;;;;19.33;11.95;;;4.90;99.90;;;;;;5092764;28;20228;-77
2020/12/11 10:29:13;;;;;;;21.67;11.80;;;5.00;99.90;;;;;;5095947;28;20211;-77
2020/12/11 10:31:42;;;;;;;19.73;10.77;;;4.80;99.90;;;;;;5094130;28;20616;-76
2020/12/11 10:34:10;;;;;;;23.55;11.40;;;4.80;99.90;;;;;;5092883;28;20205;-77
2020/12/11 10:36:36;;;;;;;17.98;10.82;;;5.00;99.90;;;;;;5092720;28;20255;-77
2020/12/11 10:39:03;;;;;;;18.60;11.98;;;5.20;99.90;;;;;;5092062;28;20197;-77
2020/12/11 10:41:30;;;;;;;15.35;9.90;;;5.20;99.90;;;;;;5090753;28;20201;-75
2020/12/11 10:43:56;;;;;;;18.73;11.25;;;5.10;99.90;;;;;;5092155;28;20201;-74
2020/12/11 10:46:23;;;;;;;24.65;11.10;;;5.40;99.90;;;;;;5091650;28;20228;-74
2020/12/11 10:48:49;;;;;;;18.55;10.75;;;5.40;99.90;;;;;;5092162;28;20258;-74
2020/12/11 10:51:18;;;;;;;21.35;10.35;;;5.40;99.90;;;;;;5091981;28;20700;-73
2020/12/11 10:53:45;;;;;;;21.83;11.48;;;5.50;99.90;;;;;;5110586;22;20233;-75
2020/12/11 10:56:12;;;;;;;15.65;9.85;;;5.60;99.90;;;;;;5061715;28;20896;-74
2020/12/11 10:58:39;;;;;;;15.10;9.82;;;5.50;99.90;;;;;;5070010;28;20205;-75
2020/12/11 11:01:07;;;;;;;19.80;10.85;;;5.40;99.90;;;;;;5071314;28;20213;-75
2020/12/11 11:03:34;;;;;;;14.50;9.68;;;5.40;99.90;;;;;;5067158;28;20229;-75
2020/12/11 11:06:03;;;;;;;14.38;10.52;;;5.30;99.90;;;;;;5052374;28;20243;-75
2020/12/11 11:08:42;;;;;;;15.82;10.15;;;5.40;99.90;;;;;;5051569;28;20199;-76
2020/12/11 11:11:09;;;;;;;19.40;10.98;;;5.30;99.90;;;;;;5057267;28;20690;-76
2020/12/11 11:13:45;;;;;;;15.43;10.20;;;5.60;99.90;;;;;;5058498;28;20230;-76
2020/12/11 11:16:15;;;;;;;15.13;9.20;;;5.50;99.90;;;;;;5056666;28;20233;-75
2020/12/11 11:18:47;;;;;;;21.27;12.63;;;5.30;99.90;;;;;;5061195;28;20286;-76
2020/12/11 11:27:03;;;;;;;21.27;11.02;;;5.60;99.90;;;;;;5056647;28;20652;-75
2020/12/11 11:29:30;;;;;;;16.65;9.82;;;5.60;99.90;;;;;;5051409;28;20213;-75
2020/12/11 11:31:56;;;;;;;17.35;10.52;;;5.40;99.90;;;;;;5052460;28;20276;-76
2020/12/11 11:34:23;;;;;;;16.77;10.45;;;5.40;99.90;;;;;;5052029;28;20238;-76
2020/12/11 11:36:50;;;;;;;15.77;10.27;;;5.60;99.90;;;;;;5051670;28;20272;-76
2020/12/11 11:39:18;;;;;;;15.00;9.20;;;5.50;99.90;;;;;;5055455;28;20202;-76
2020/12/11 11:41:47;;;;;;;21.17;10.65;;;5.30;99.90;;;;;;5068823;28;20679;-76
2020/12/11 11:47:00;;;;;;;16.50;8.80;;;5.30;99.90;;;;;;5069979;28;20233;-75
2020/12/11 11:49:30;;;;;;;17.55;10.45;;;5.30;99.90;;;;;;5058086;28;20226;-75
2020/12/11 11:52:06;;;;;;;17.35;10.57;;;5.20;99.90;;;;;;5051420;28;20217;-76
2020/12/11 11:54:36;;;;;;;17.27;9.98;;;5.00;99.90;;;;;;5060632;28;20329;-79
2020/12/11 11:57:02;;;;;;;18.02;10.27;;;5.30;99.90;;;;;;5051496;28;20194;-76
2020/12/11 11:59:29;;;;;;;17.92;9.90;;;5.50;99.90;;;;;;5065481;28;20225;-76
2020/12/11 12:01:56;;;;;;;16.65;10.00;;;5.50;99.90;;;;;;5050915;28;20206;-76
2020/12/11 12:04:23;;;;;;;18.80;10.50;;;5.60;99.90;;;;;;5050782;28;20292;-76
2020/12/11 12:06:49;;;;;;;20.77;13.13;;;5.50;99.90;;;;;;5050756;28;20285;-76
2020/12/11 12:09:17;;;;;;;15.57;9.57;;;5.20;99.90;;;;;;5054801;28;20229;-74
2020/12/11 12:11:45;;;;;;;16.88;9.35;;;5.40;99.90;;;;;;5050490;28;20203;-75
2020/12/11 12:14:12;;;;;;;17.10;10.30;;;5.60;99.90;;;;;;5054567;28;20451;-75
2020/12/11 12:16:40;;;;;;;20.40;10.85;;;5.90;99.90;;;;;;5053095;28;20198;-75
2020/12/11 12:19:10;;;;;;;15.75;10.18;;;5.70;99.90;;;;;;5051225;28;20198;-75
2020/12/11 12:21:52;;;;;;;17.67;11.13;;;5.80;99.90;;;;;;5059552;28;20205;-75
2020/12/11 12:29:57;;;;;;;21.48;12.65;;;6.10;99.90;;;;;;5040440;28;20256;-76
2020/12/11 12:32:26;;;;;;;21.30;11.52;;;6.10;99.90;;;;;;5061134;28;20221;-75
2020/12/11 12:34:54;;;;;;;23.13;12.05;;;5.90;99.90;;;;;;5054784;28;20298;-75
2020/12/11 12:37:36;;;;;;;16.75;10.55;;;5.80;99.90;;;;;;5070692;28;20708;-76
2020/12/11 12:45:38;;;;;;;19.60;11.90;;;6.30;99.90;;;;;;5050077;28;20729;-77
2020/12/11 12:48:05;;;;;;;19.98;11.30;;;6.20;99.90;;;;;;5057759;28;20277;-76
2020/12/11 12:50:32;;;;;;;17.00;10.48;;;6.10;99.90;;;;;;5067038;28;20213;-76
2020/12/11 12:52:58;;;;;;;16.40;10.60;;;6.40;99.90;;;;;;5069979;28;20228;-76
2020/12/11 12:55:39;;;;;;;16.63;11.43;;;6.00;99.90;;;;;;5056812;28;20273;-76
2020/12/11 12:58:08;;;;;;;22.10;11.88;;;6.10;99.90;;;;;;5032978;28;20203;-77
2020/12/11 13:00:45;;;;;;;21.90;11.30;;;6.20;99.90;;;;;;5049539;28;20210;-76
2020/12/11 13:03:27;;;;;;;16.85;11.13;;;6.10;99.90;;;;;;5049645;28;20216;-77
2020/12/11 13:05:54;;;;;;;18.70;10.95;;;6.10;99.90;;;;;;5050731;28;20264;-77
2020/12/11 13:08:20;;;;;;;26.55;11.38;;;5.80;99.90;;;;;;5051406;28;20695;-76
2020/12/11 13:10:47;;;;;;;16.88;10.45;;;6.10;99.90;;;;;;5050058;28;20723;-77
2020/12/11 13:13:15;;;;;;;20.95;10.38;;;6.10;99.90;;;;;;5050554;28;20206;-77
2020/12/11 13:15:42;;;;;;;17.63;11.75;;;6.30;99.90;;;;;;5050698;28;20231;-76